KSHL

Details ICAO KSHL
Name SHELDON MUNI
Region United States
Timezone America/Chicago (UTC-5.0)
Plans Departing 1
Arriving 1
Stats Elevation 1,419 ft / 433 m (AMSL)
Location 43.208388° -95.833427°
Runways 1
Magnetic Variation 2.347° E
Sunrise 2018-05-24 10:52:45 UTC / 2018-05-24 05:52:45 Local
Sunset 2018-05-25 01:50:31 UTC / 2018-05-24 20:50:31 Local
Advertisement - Login to hide

Runways

ID Width Length Bearing (true) Bearing (mag) Surface Threshold Offset Overrun Length
15 75 ft / 23 m 4,200 ft / 1,280 m 155.51° 153.16° Concrete 0 ft / 0 m 0 ft / 0 m
33 75 ft / 23 m 4,200 ft / 1,280 m 335.51° 333.16° Concrete 0 ft / 0 m 0 ft / 0 m

Map

Weather


0- 5 10 15 20 25 30 35+ Temperature / ° C

Clouds and Precipitation
Forecast for 2018-05-24 06:00 UTC. Updated 3 hours ago

Ground ~20,000 ft ~40,000 ft Winds

METAR

KSHL 240735Z AUTO 16013KT 10SM CLR 22/20 A3001 RMK AO2

TAF

Not found

Frequencies

Recorded 119.77 MHz AWOS 3
Unicom 122.80 MHz CTAF/UNICOM
Warning: Do not use this data for real-world aviation or navigation. No guarantee of current accuracy is given.